Historyczne dane pomiarowe

Dodano dane terminowe – wersja testowa.

Dane z okresu 1951-2019

Wersja bazy: 1.34 [2019-03-16, lista zmian], aktualizacja planowana na 2019-04-15

Dane meteo z obszaru Polski uzyskane na podstawie danych udostępnionych przez Instytut Meteorologii i Gospodarki Wodnej – Państwowy Instytut Badawczy.

 

Wybierz Datę:    

       

TemperaturaWilgotnośćWiatrCiśnienieOpadyŚniegCzas trwania zjawisk
 Stacja t tx tn tng RH VA  wxwx mslp ppp RRR   cm mm wxwxwxwxwxwxwx
1962-02-25 -5.6 -3.3-12.4--- 8.0 3.7---- 3.9-- 15---------
1962-02-26 -3.9 -1.9 -4.5--- 7.7 2.7---- 0.0-- 15---------
1962-02-27 -7.1 -4.0 -9.3--- 5.7 3.0---- 0.0-- 15---------
1962-02-28 -6.7 -3.3-13.0--- 6.7 2.3---- 1.0-- 14---------
1962-03-01 -4.0 -1.6 -7.0--- 8.0 1.0---- 0.0-- 14---------
1962-03-02 -4.6 -2.1 -6.0--- 8.0 1.0---- 0.0-- 10---------
1962-03-03 -4.1 1.1 -7.4--- 2.7 1.0---- 0.0------------
1962-03-04 3.0 7.0 -5.2--- 5.7 1.3---- 4.9------------
1962-03-05 7.8 11.8 2.6--- 6.7 0.7---- 0.4------------
1962-03-06 2.9 10.7 0.0--- 6.0 7.0---- 0.0------------
1962-03-07 -1.6 0.9 -2.4--- 8.0 2.7---- 2.1------------
1962-03-08 -2.8 0.1 -5.3--- 3.0 2.0---- 0.0-- 1---------
1962-03-09 -2.5 0.1 -3.6--- 5.0 3.0---- 0.0------------
1962-03-10 -3.1 0.2 -6.8--- 5.7 12.0---- 0.0------------
1962-03-11 2.3 6.8 -2.6--- 3.0 2.0---- 0.0------------
1962-03-12 0.9 2.6 0.4--- 8.0 1.0---- 7.5------------
1962-03-13 -3.4 1.7 -5.0--- 7.3 10.3---- 0.0-- 3---------
1962-03-14 -7.3 -3.1 -9.0--- 2.3 4.7---- 0.0-- 3---------
1962-03-15 -6.8 -4.8 -9.2--- 8.0 2.7---- 2.7-- 3---------
1962-03-16 -6.8 -5.5 -7.3--- 8.0 8.7---- 21.2-- 5---------
1962-03-17 -6.1 -4.4 -8.0--- 8.0 5.0---- 5.6-- 26---------
1962-03-18 -6.8 -2.2 -8.7--- 3.7 4.3---- 0.0-- 35---------
1962-03-19 -4.9 -0.8 -9.7--- 6.0 1.0---- 0.0-- 25---------
1962-03-20 -6.7 -0.3 -8.9--- 2.7 1.0---- 0.0-- 21---------
1962-03-21 -8.0 -1.8-17.3--- 2.3 1.0---- 0.0-- 20---------
1962-03-22 -4.5 -1.4 -9.4--- 8.0 1.7---- 3.9-- 17---------
1962-03-23 0.1 2.6 -2.4--- 8.0 0.3---- 5.6-- 25---------
1962-03-24 -1.2 1.2 -1.8--- 8.0 3.7---- 0.2-- 27---------
1962-03-25 -6.1 0.9-10.0--- 2.0 1.3---- 0.0-- 24---------
1962-03-26 -8.9 0.0-18.8--- 1.3 0.7---- 0.0-- 22---------
138.6 ms

 

Źródłem pochodzenia danych jest Instytut Meteorologii i Gospodarki Wodnej – Państwowy Instytut Badawczy. Dane Instytutu Meteorologii i Gospodarki Wodnej – Państwowego Instytutu Badawczego zostały przetworzone.

Dane źródłowe można odnaleźć na stronie https://dane.imgw.pl